Terminal Aerodrome Forecast
Issued by NWS Pittsburgh, PA

Home | Current Version | Previous Version | Text Only | Print | Product List | Glossary On
Versions: 1 2 3 4 5 6 7 8 9 10 11 12 13 14 15 16 17 18 19 20 21 22 23 24 25 26
861
FTUS41 KPBZ 220411 AAB
TAFPIT
TAF AMD
KPIT 220411Z 2204/2306 25005KT P6SM FEW008 BKN015
     FM220600 00000KT 3SM BR SCT020
     FM220800 00000KT 2SM BR BKN015
     FM221300 19007KT P6SM -SHRA VCTS OVC035CB=

USA.gov is the U.S. government's official web portal to all federal, state and local government web resources and services.